Portada
METAR-TAF:

METAR-TAF

Aeropuertos :

Gage, Oklahoma, Estados Unidos

latitud: 36-17-48N, longitud: 099-46-08W, altitud: 677 m

Observación

El informe se hizo hace 21 minutos, a las 06:53 UTC
Viento 15 kt del sur-sureste
Temperatura 24°C
Humedad 69%
Presión 1012 hPa
Visibilidad: 16.1 km
Cielo despejado

METAR: KGAG 070653Z AUTO 16015KT 10SM CLR 24/18 A2988 RMK AO2 SLP083 T02440183

Hora: 02:14 (07:14 UTC)


TAF: falta

Observaciones y pronósticos meteorológicos de más de 4000 aeropuertos (mensajes METAR y TAF).

Los puntos amarillos y rojos representan las estaciones disponibles.

Ponga el ratón en el punto deseado para ver el nombre de la estación.

Haga clic para ver las observaciones y los pronósticos meteorológicos.

Para cambiar el mapa : haga clic en los botones verdes con una cruz de color negro para hacer un zoom, en el botón verde con un guión para alejar o en las flechas verdes para mapas adyacentes.


METAR-TAF: